sensor_id;sensor_type;location;lat;lon;timestamp;temperature;humidity
43862;DHT22;29510;52.140;5.034;2022-09-17T00:00:11;11.70;99.90
43862;DHT22;29510;52.140;5.034;2022-09-17T00:10:12;11.60;99.90
43862;DHT22;29510;52.140;5.034;2022-09-17T00:20:13;11.50;99.90
43862;DHT22;29510;52.140;5.034;2022-09-17T00:30:14;11.40;99.90
43862;DHT22;29510;52.140;5.034;2022-09-17T00:40:16;11.40;99.90
43862;DHT22;29510;52.140;5.034;2022-09-17T01:00:29;11.30;99.90
43862;DHT22;29510;52.140;5.034;2022-09-17T01:21:35;11.00;99.90
43862;DHT22;29510;52.140;5.034;2022-09-17T01:31:57;11.00;99.90
43862;DHT22;29510;52.140;5.034;2022-09-17T01:52:15;11.10;99.90
43862;DHT22;29510;52.140;5.034;2022-09-17T02:02:26;11.30;99.90
43862;DHT22;29510;52.140;5.034;2022-09-17T02:12:36;11.30;99.90
43862;DHT22;29510;52.140;5.034;2022-09-17T02:22:42;11.30;99.90
43862;DHT22;29510;52.140;5.034;2022-09-17T02:32:46;11.10;99.90
43862;DHT22;29510;52.140;5.034;2022-09-17T03:03:28;10.70;99.90
43862;DHT22;29510;52.140;5.034;2022-09-17T03:13:31;10.70;99.90
43862;DHT22;29510;52.140;5.034;2022-09-17T03:23:32;10.50;99.90
43862;DHT22;29510;52.140;5.034;2022-09-17T03:33:33;10.40;99.90
43862;DHT22;29510;52.140;5.034;2022-09-17T03:43:34;10.20;99.90
43862;DHT22;29510;52.140;5.034;2022-09-17T03:53:35;10.10;99.90
43862;DHT22;29510;52.140;5.034;2022-09-17T04:03:36;10.20;99.90
43862;DHT22;29510;52.140;5.034;2022-09-17T04:13:37;10.30;99.90
43862;DHT22;29510;52.140;5.034;2022-09-17T04:23:38;10.20;99.90
43862;DHT22;29510;52.140;5.034;2022-09-17T04:33:39;10.10;99.90
43862;DHT22;29510;52.140;5.034;2022-09-17T04:43:55;9.90;99.90
43862;DHT22;29510;52.140;5.034;2022-09-17T04:53:56;9.70;99.90
43862;DHT22;29510;52.140;5.034;2022-09-17T05:03:57;9.80;99.90
43862;DHT22;29510;52.140;5.034;2022-09-17T05:13:58;9.80;99.90
43862;DHT22;29510;52.140;5.034;2022-09-17T05:23:59;9.90;99.90
43862;DHT22;29510;52.140;5.034;2022-09-17T05:34:01;10.30;99.90
43862;DHT22;29510;52.140;5.034;2022-09-17T05:44:02;10.20;99.90
43862;DHT22;29510;52.140;5.034;2022-09-17T05:54:03;10.10;99.90
43862;DHT22;29510;52.140;5.034;2022-09-17T06:04:04;10.00;99.90
43862;DHT22;29510;52.140;5.034;2022-09-17T06:14:05;9.90;99.90
43862;DHT22;29510;52.140;5.034;2022-09-17T06:24:08;9.90;99.90
43862;DHT22;29510;52.140;5.034;2022-09-17T06:34:10;9.90;99.90
43862;DHT22;29510;52.140;5.034;2022-09-17T06:44:11;9.90;99.90
43862;DHT22;29510;52.140;5.034;2022-09-17T06:54:12;10.00;99.90
43862;DHT22;29510;52.140;5.034;2022-09-17T07:04:13;10.20;99.90
43862;DHT22;29510;52.140;5.034;2022-09-17T07:14:17;10.50;99.90
43862;DHT22;29510;52.140;5.034;2022-09-17T07:24:18;10.80;99.90
43862;DHT22;29510;52.140;5.034;2022-09-17T07:34:19;11.10;99.90
43862;DHT22;29510;52.140;5.034;2022-09-17T07:44:21;11.40;99.90
43862;DHT22;29510;52.140;5.034;2022-09-17T07:54:22;11.60;99.90
43862;DHT22;29510;52.140;5.034;2022-09-17T08:04:23;12.10;99.90
43862;DHT22;29510;52.140;5.034;2022-09-17T08:14:24;12.00;99.90
43862;DHT22;29510;52.140;5.034;2022-09-17T08:24:25;12.00;99.90
43862;DHT22;29510;52.140;5.034;2022-09-17T08:34:27;12.20;99.90
43862;DHT22;29510;52.140;5.034;2022-09-17T08:44:38;11.60;99.90
43862;DHT22;29510;52.140;5.034;2022-09-17T09:05:15;11.40;99.90
43862;DHT22;29510;52.140;5.034;2022-09-17T09:15:46;11.50;99.90
43862;DHT22;29510;52.140;5.034;2022-09-17T09:25:54;11.50;99.90
43862;DHT22;29510;52.140;5.034;2022-09-17T09:35:58;11.60;99.90
43862;DHT22;29510;52.140;5.034;2022-09-17T09:56:50;12.50;99.90
43862;DHT22;29510;52.140;5.034;2022-09-17T10:07:04;13.10;99.90
43862;DHT22;29510;52.140;5.034;2022-09-17T10:17:24;13.00;99.90
43862;DHT22;29510;52.140;5.034;2022-09-17T10:27:26;12.40;99.90
43862;DHT22;29510;52.140;5.034;2022-09-17T10:37:49;12.30;99.90
43862;DHT22;29510;52.140;5.034;2022-09-17T10:47:51;12.80;99.90
43862;DHT22;29510;52.140;5.034;2022-09-17T11:18:49;14.30;99.90
43862;DHT22;29510;52.140;5.034;2022-09-17T11:39:55;15.40;99.90
43862;DHT22;29510;52.140;5.034;2022-09-17T11:49:50;16.10;99.90
43862;DHT22;29510;52.140;5.034;2022-09-17T12:10:20;16.30;99.90
43862;DHT22;29510;52.140;5.034;2022-09-17T12:20:29;16.50;99.90
43862;DHT22;29510;52.140;5.034;2022-09-17T12:30:43;17.30;99.90
43862;DHT22;29510;52.140;5.034;2022-09-17T12:52:04;15.40;99.90
43862;DHT22;29510;52.140;5.034;2022-09-17T13:01:52;16.70;99.90
43862;DHT22;29510;52.140;5.034;2022-09-17T13:22:16;17.00;99.90
43862;DHT22;29510;52.140;5.034;2022-09-17T13:42:45;19.20;97.80
43862;DHT22;29510;52.140;5.034;2022-09-17T13:52:49;19.70;96.70
43862;DHT22;29510;52.140;5.034;2022-09-17T14:02:51;18.80;98.20
43862;DHT22;29510;52.140;5.034;2022-09-17T14:12:54;18.50;99.90
43862;DHT22;29510;52.140;5.034;2022-09-17T14:23:01;18.80;99.30
43862;DHT22;29510;52.140;5.034;2022-09-17T14:33:07;18.80;99.90
43862;DHT22;29510;52.140;5.034;2022-09-17T14:53:47;17.70;99.90
43862;DHT22;29510;52.140;5.034;2022-09-17T15:03:49;17.40;99.40
43862;DHT22;29510;52.140;5.034;2022-09-17T15:13:51;17.20;99.90
43862;DHT22;29510;52.140;5.034;2022-09-17T15:23:57;16.70;99.90
43862;DHT22;29510;52.140;5.034;2022-09-17T15:33:59;16.50;99.90
43862;DHT22;29510;52.140;5.034;2022-09-17T15:44:25;16.60;99.90
43862;DHT22;29510;52.140;5.034;2022-09-17T15:54:30;16.50;99.90
43862;DHT22;29510;52.140;5.034;2022-09-17T16:04:33;15.90;99.90
43862;DHT22;29510;52.140;5.034;2022-09-17T16:14:34;15.60;99.90
43862;DHT22;29510;52.140;5.034;2022-09-17T16:24:35;15.40;99.90
43862;DHT22;29510;52.140;5.034;2022-09-17T16:34:36;14.80;99.90
43862;DHT22;29510;52.140;5.034;2022-09-17T16:44:37;13.50;99.90
43862;DHT22;29510;52.140;5.034;2022-09-17T16:54:38;12.50;99.90
43862;DHT22;29510;52.140;5.034;2022-09-17T17:04:39;12.00;99.90
43862;DHT22;29510;52.140;5.034;2022-09-17T17:14:40;11.60;99.90
43862;DHT22;29510;52.140;5.034;2022-09-17T17:24:41;11.50;99.90
43862;DHT22;29510;52.140;5.034;2022-09-17T17:34:42;11.60;99.90
43862;DHT22;29510;52.140;5.034;2022-09-17T17:44:43;11.60;99.90
43862;DHT22;29510;52.140;5.034;2022-09-17T17:54:44;11.50;99.90
43862;DHT22;29510;52.140;5.034;2022-09-17T18:04:45;11.60;99.90
43862;DHT22;29510;52.140;5.034;2022-09-17T18:14:46;11.60;99.90
43862;DHT22;29510;52.140;5.034;2022-09-17T18:24:48;11.60;99.90
43862;DHT22;29510;52.140;5.034;2022-09-17T18:34:49;11.50;99.90
43862;DHT22;29510;52.140;5.034;2022-09-17T18:44:50;11.50;99.90
43862;DHT22;29510;52.140;5.034;2022-09-17T18:54:51;11.40;99.90
43862;DHT22;29510;52.140;5.034;2022-09-17T19:04:52;11.40;99.90
43862;DHT22;29510;52.140;5.034;2022-09-17T19:14:53;11.50;99.90
43862;DHT22;29510;52.140;5.034;2022-09-17T19:24:54;11.40;99.90
43862;DHT22;29510;52.140;5.034;2022-09-17T19:34:55;11.40;99.90
43862;DHT22;29510;52.140;5.034;2022-09-17T19:44:57;11.40;99.90
43862;DHT22;29510;52.140;5.034;2022-09-17T19:54:58;11.40;99.90
43862;DHT22;29510;52.140;5.034;2022-09-17T20:04:59;11.50;99.90
43862;DHT22;29510;52.140;5.034;2022-09-17T20:15:00;11.50;99.90
43862;DHT22;29510;52.140;5.034;2022-09-17T20:25:01;11.50;99.90
43862;DHT22;29510;52.140;5.034;2022-09-17T20:35:02;11.50;99.90
43862;DHT22;29510;52.140;5.034;2022-09-17T20:45:03;11.50;99.90
43862;DHT22;29510;52.140;5.034;2022-09-17T20:55:05;11.40;99.90
43862;DHT22;29510;52.140;5.034;2022-09-17T21:05:06;11.50;99.90
43862;DHT22;29510;52.140;5.034;2022-09-17T21:15:08;11.40;99.90
43862;DHT22;29510;52.140;5.034;2022-09-17T21:25:09;11.50;99.90
43862;DHT22;29510;52.140;5.034;2022-09-17T21:35:10;11.50;99.90
43862;DHT22;29510;52.140;5.034;2022-09-17T21:45:11;11.50;99.90
43862;DHT22;29510;52.140;5.034;2022-09-17T21:55:12;11.40;99.90
43862;DHT22;29510;52.140;5.034;2022-09-17T22:05:13;11.40;99.90
43862;DHT22;29510;52.140;5.034;2022-09-17T22:15:15;11.40;99.90
43862;DHT22;29510;52.140;5.034;2022-09-17T22:25:16;11.50;99.90
43862;DHT22;29510;52.140;5.034;2022-09-17T22:35:17;11.50;99.90
43862;DHT22;29510;52.140;5.034;2022-09-17T22:45:18;11.40;99.90
43862;DHT22;29510;52.140;5.034;2022-09-17T22:55:19;11.40;99.90
43862;DHT22;29510;52.140;5.034;2022-09-17T23:05:20;11.50;99.90
43862;DHT22;29510;52.140;5.034;2022-09-17T23:15:21;11.50;99.90
43862;DHT22;29510;52.140;5.034;2022-09-17T23:25:27;11.30;99.90
43862;DHT22;29510;52.140;5.034;2022-09-17T23:35:28;11.30;99.90
43862;DHT22;29510;52.140;5.034;2022-09-17T23:45:29;11.30;99.90
43862;DHT22;29510;52.140;5.034;2022-09-17T23:55:30;11.30;99.90
